Saltar para o conteúdo principal

Beja

ID 1200562 · 38.0249, -7.8673 mapa

Última leitura · 2026-05-09 19:00 (Europe/Lisbon)

Temperatura
16.3 °C
Humidade
73 %
Pressão
1,009.0 hPa
Precipitação
0.3 mm
Radiação
497 W/m²
Velocidade do vento
22.7 km/h
Direcção do vento
SW · Sudoeste

Histórico de 24 horas

Hora (Europe/Lisbon) Temperatura Humidade Pressão Chuva Vento Direcção
2026-05-09 19:00 16.3 °C 73 % 1,009.0 0.3 mm 22.7 km/h SW
2026-05-09 18:00 18.5 °C 56 % 1,007.8 0.0 mm 34.6 km/h SW
2026-05-09 17:00 18.8 °C 64 % 1,007.2 0.0 mm 33.5 km/h SW
2026-05-09 16:00 16.9 °C 85 % 1,007.4 1.5 mm 25.2 km/h SW
2026-05-09 15:00 16.8 °C 72 % 1,007.3 2.6 mm 28.8 km/h W
2026-05-09 14:00 19.2 °C 54 % 1,006.7 0.0 mm 22.3 km/h SW
2026-05-09 13:00 18.1 °C 60 % 1,006.6 0.0 mm 29.2 km/h SW
2026-05-09 12:00 17.0 °C 71 % 1,006.1 0.0 mm 28.4 km/h SW
2026-05-09 11:00 15.6 °C 86 % 1,005.3 0.0 mm 26.6 km/h SW
2026-05-09 10:00 14.5 °C 97 % 1,004.5 0.1 mm 23.8 km/h SW
2026-05-09 09:00 13.7 °C 97 % 1,004.5 0.0 mm 15.8 km/h SE
2026-05-09 08:00 13.6 °C 100 % 1,004.8 0.2 mm 11.9 km/h SE
2026-05-09 07:00 12.9 °C 100 % 1,004.8 0.4 mm 11.9 km/h SE
2026-05-09 06:00 12.4 °C 100 % 1,005.1 0.4 mm 9.4 km/h SE
2026-05-09 05:00 12.6 °C 100 % 1,005.7 0.1 mm 11.9 km/h SE
2026-05-09 04:00 13.0 °C 100 % 1,006.1 0.1 mm 15.1 km/h SE
2026-05-09 03:00 12.6 °C 100 % 1,007.0 0.4 mm 12.6 km/h SE
2026-05-09 02:00 12.7 °C 99 % 1,007.7 0.0 mm 11.2 km/h SE
2026-05-09 01:00 13.0 °C 100 % 1,008.4 0.0 mm 14.0 km/h S
2026-05-09 00:00 12.8 °C 100 % 1,008.7 1.4 mm 14.0 km/h SE
2026-05-08 23:00 13.8 °C 90 % 1,009.2 2.0 mm 13.3 km/h S
2026-05-08 22:00 15.0 °C 69 % 1,008.6 0.0 mm 11.2 km/h S
2026-05-08 21:00 16.8 °C 55 % 1,007.8 0.0 mm 23.0 km/h SW
2026-05-08 20:00 18.0 °C 48 % 1,007.3 0.0 mm 18.0 km/h S